sensor_id;sensor_type;location;lat;lon;timestamp;pressure;altitude;pressure_sealevel;temperature;humidity
72055;BME280;59936;51.490;5.436;2023-06-10T00:00:03;101250.53;;;21.66;52.34
72055;BME280;59936;51.490;5.436;2023-06-10T00:04:54;101252.97;;;21.56;52.53
72055;BME280;59936;51.490;5.436;2023-06-10T00:07:24;101243.00;;;21.50;51.75
72055;BME280;59936;51.490;5.436;2023-06-10T00:09:52;101249.94;;;21.46;52.20
72055;BME280;59936;51.490;5.436;2023-06-10T00:12:21;101248.72;;;21.42;52.28
72055;BME280;59936;51.490;5.436;2023-06-10T00:14:49;101245.38;;;21.40;52.28
72055;BME280;59936;51.490;5.436;2023-06-10T00:17:18;101246.06;;;21.35;52.51
72055;BME280;59936;51.490;5.436;2023-06-10T00:19:46;101251.75;;;21.34;52.40
72055;BME280;59936;51.490;5.436;2023-06-10T00:22:15;101251.34;;;21.30;52.42
72055;BME280;59936;51.490;5.436;2023-06-10T00:24:44;101251.22;;;21.25;52.60
72055;BME280;59936;51.490;5.436;2023-06-10T00:27:12;101254.41;;;21.22;52.46
72055;BME280;59936;51.490;5.436;2023-06-10T00:29:41;101256.13;;;21.16;52.64
72055;BME280;59936;51.490;5.436;2023-06-10T00:32:09;101251.56;;;21.10;52.68
72055;BME280;59936;51.490;5.436;2023-06-10T00:34:38;101253.72;;;21.08;52.55
72055;BME280;59936;51.490;5.436;2023-06-10T00:37:06;101259.84;;;21.04;52.43
72055;BME280;59936;51.490;5.436;2023-06-10T00:39:35;101251.94;;;20.96;52.77
72055;BME280;59936;51.490;5.436;2023-06-10T00:42:04;101258.28;;;20.90;52.66
72055;BME280;59936;51.490;5.436;2023-06-10T00:44:33;101264.88;;;20.82;52.94
72055;BME280;59936;51.490;5.436;2023-06-10T00:47:01;101264.94;;;20.75;52.99
72055;BME280;59936;51.490;5.436;2023-06-10T00:49:30;101258.69;;;20.68;53.00
72055;BME280;59936;51.490;5.436;2023-06-10T00:51:59;101264.81;;;20.64;52.97
72055;BME280;59936;51.490;5.436;2023-06-10T00:54:28;101264.41;;;20.60;52.95
72055;BME280;59936;51.490;5.436;2023-06-10T00:56:57;101257.94;;;20.55;53.08
72055;BME280;59936;51.490;5.436;2023-06-10T00:59:29;101261.56;;;20.48;53.24
72055;BME280;59936;51.490;5.436;2023-06-10T01:01:58;101263.50;;;20.41;53.40
72055;BME280;59936;51.490;5.436;2023-06-10T01:04:27;101261.06;;;20.33;53.75
72055;BME280;59936;51.490;5.436;2023-06-10T01:15:26;101260.16;;;20.08;53.94
72055;BME280;59936;51.490;5.436;2023-06-10T01:17:59;101253.09;;;20.00;53.85
72055;BME280;59936;51.490;5.436;2023-06-10T01:20:30;101265.09;;;19.93;54.19
72055;BME280;59936;51.490;5.436;2023-06-10T01:23:01;101269.13;;;19.77;54.87
72055;BME280;59936;51.490;5.436;2023-06-10T01:25:30;101269.13;;;19.77;54.87
72055;BME280;59936;51.490;5.436;2023-06-10T01:28:04;101271.66;;;19.65;55.01
72055;BME280;59936;51.490;5.436;2023-06-10T01:33:35;101268.38;;;19.50;55.53
72055;BME280;59936;51.490;5.436;2023-06-10T01:36:07;101261.06;;;19.44;55.30
72055;BME280;59936;51.490;5.436;2023-06-10T01:38:40;101267.56;;;19.36;55.51
72055;BME280;59936;51.490;5.436;2023-06-10T01:41:13;101265.31;;;19.33;55.23
72055;BME280;59936;51.490;5.436;2023-06-10T01:43:45;101267.19;;;19.26;55.17
72055;BME280;59936;51.490;5.436;2023-06-10T01:46:15;101269.94;;;19.20;55.33
72055;BME280;59936;51.490;5.436;2023-06-10T01:48:43;101271.63;;;19.07;55.91
72055;BME280;59936;51.490;5.436;2023-06-10T01:51:12;101271.63;;;19.07;55.91
72055;BME280;59936;51.490;5.436;2023-06-10T01:53:41;101270.59;;;18.95;56.31
72055;BME280;59936;51.490;5.436;2023-06-10T01:56:09;101272.47;;;18.88;56.50
72055;BME280;59936;51.490;5.436;2023-06-10T01:58:38;101271.63;;;18.81;56.44
72055;BME280;59936;51.490;5.436;2023-06-10T02:01:06;101271.63;;;18.81;56.44
72055;BME280;59936;51.490;5.436;2023-06-10T02:03:35;101279.16;;;18.72;56.40
72055;BME280;59936;51.490;5.436;2023-06-10T02:06:03;101279.16;;;18.72;56.40
72055;BME280;59936;51.490;5.436;2023-06-10T02:08:32;101278.53;;;18.64;56.87
72055;BME280;59936;51.490;5.436;2023-06-10T02:11:01;101281.66;;;18.61;57.25
72055;BME280;59936;51.490;5.436;2023-06-10T02:13:29;101283.97;;;18.57;56.96
72055;BME280;59936;51.490;5.436;2023-06-10T02:15:58;101279.97;;;18.53;57.26
72055;BME280;59936;51.490;5.436;2023-06-10T02:18:27;101283.34;;;18.49;57.49
72055;BME280;59936;51.490;5.436;2023-06-10T02:20:56;101288.56;;;18.43;57.60
72055;BME280;59936;51.490;5.436;2023-06-10T02:23:24;101288.56;;;18.43;57.60
72055;BME280;59936;51.490;5.436;2023-06-10T02:25:53;101280.59;;;18.35;57.65
72055;BME280;59936;51.490;5.436;2023-06-10T02:28:21;101286.63;;;18.31;57.64
72055;BME280;59936;51.490;5.436;2023-06-10T02:30:51;101281.84;;;18.26;57.78
72055;BME280;59936;51.490;5.436;2023-06-10T02:33:20;101287.25;;;18.20;57.94
72055;BME280;59936;51.490;5.436;2023-06-10T02:35:48;101287.25;;;18.20;57.94
72055;BME280;59936;51.490;5.436;2023-06-10T02:38:17;101289.34;;;18.18;58.15
72055;BME280;59936;51.490;5.436;2023-06-10T02:40:45;101292.06;;;18.18;57.97
72055;BME280;59936;51.490;5.436;2023-06-10T02:43:14;101291.41;;;18.16;58.09
72055;BME280;59936;51.490;5.436;2023-06-10T02:45:42;101291.41;;;18.16;58.09
72055;BME280;59936;51.490;5.436;2023-06-10T02:48:11;101289.09;;;18.06;58.61
72055;BME280;59936;51.490;5.436;2023-06-10T02:50:40;101288.69;;;18.02;58.77
72055;BME280;59936;51.490;5.436;2023-06-10T02:53:08;101288.69;;;18.02;58.77
72055;BME280;59936;51.490;5.436;2023-06-10T02:55:37;101287.22;;;18.00;58.82
72055;BME280;59936;51.490;5.436;2023-06-10T02:58:05;101285.53;;;17.99;58.82
72055;BME280;59936;51.490;5.436;2023-06-10T03:00:34;101283.66;;;17.99;58.95
72055;BME280;59936;51.490;5.436;2023-06-10T03:03:03;101288.25;;;17.99;58.76
72055;BME280;59936;51.490;5.436;2023-06-10T03:05:32;101282.81;;;17.99;58.79
72055;BME280;59936;51.490;5.436;2023-06-10T03:08:01;101288.44;;;17.97;58.79
72055;BME280;59936;51.490;5.436;2023-06-10T03:10:29;101285.47;;;17.92;58.95
72055;BME280;59936;51.490;5.436;2023-06-10T03:12:58;101288.59;;;17.89;58.99
72055;BME280;59936;51.490;5.436;2023-06-10T03:15:27;101294.00;;;17.89;59.31
72055;BME280;59936;51.490;5.436;2023-06-10T03:17:55;101294.00;;;17.89;59.31
72055;BME280;59936;51.490;5.436;2023-06-10T03:20:24;101298.41;;;17.84;59.31
72055;BME280;59936;51.490;5.436;2023-06-10T03:22:53;101289.44;;;17.83;59.22
72055;BME280;59936;51.490;5.436;2023-06-10T03:25:21;101298.59;;;17.82;59.90
72055;BME280;59936;51.490;5.436;2023-06-10T03:27:50;101298.59;;;17.82;59.90
72055;BME280;59936;51.490;5.436;2023-06-10T03:30:18;101297.31;;;17.78;60.07
72055;BME280;59936;51.490;5.436;2023-06-10T03:32:47;101297.31;;;17.78;60.07
72055;BME280;59936;51.490;5.436;2023-06-10T03:35:20;101296.88;;;17.74;60.04
72055;BME280;59936;51.490;5.436;2023-06-10T03:37:49;101297.09;;;17.73;59.91
72055;BME280;59936;51.490;5.436;2023-06-10T03:40:17;101295.81;;;17.69;60.20
72055;BME280;59936;51.490;5.436;2023-06-10T03:42:46;101303.13;;;17.68;60.02
72055;BME280;59936;51.490;5.436;2023-06-10T03:45:15;101307.69;;;17.68;60.22
72055;BME280;59936;51.490;5.436;2023-06-10T03:47:43;101322.09;;;17.68;60.57
72055;BME280;59936;51.490;5.436;2023-06-10T03:50:12;101322.09;;;17.68;60.57
72055;BME280;59936;51.490;5.436;2023-06-10T03:52:40;101307.06;;;17.66;60.34
72055;BME280;59936;51.490;5.436;2023-06-10T03:55:09;101309.38;;;17.69;60.27
72055;BME280;59936;51.490;5.436;2023-06-10T03:57:37;101309.38;;;17.69;60.27
72055;BME280;59936;51.490;5.436;2023-06-10T04:00:06;101308.94;;;17.65;60.42
72055;BME280;59936;51.490;5.436;2023-06-10T04:02:35;101314.78;;;17.69;60.44
72055;BME280;59936;51.490;5.436;2023-06-10T04:05:04;101314.78;;;17.69;60.44
72055;BME280;59936;51.490;5.436;2023-06-10T04:07:33;101308.72;;;17.67;60.59
72055;BME280;59936;51.490;5.436;2023-06-10T04:10:01;101312.28;;;17.67;60.95
72055;BME280;59936;51.490;5.436;2023-06-10T04:12:30;101313.75;;;17.70;60.62
72055;BME280;59936;51.490;5.436;2023-06-10T04:14:59;101315.44;;;17.71;60.93
72055;BME280;59936;51.490;5.436;2023-06-10T04:17:27;101315.22;;;17.72;60.74
72055;BME280;59936;51.490;5.436;2023-06-10T04:19:56;101314.81;;;17.75;60.93
72055;BME280;59936;51.490;5.436;2023-06-10T04:22:25;101316.50;;;17.76;61.64
72055;BME280;59936;51.490;5.436;2023-06-10T04:24:54;101311.50;;;17.80;61.15
72055;BME280;59936;51.490;5.436;2023-06-10T04:27:22;101318.19;;;17.84;60.95
72055;BME280;59936;51.490;5.436;2023-06-10T04:29:52;101324.03;;;17.88;60.68
72055;BME280;59936;51.490;5.436;2023-06-10T04:32:20;101327.38;;;17.90;61.06
72055;BME280;59936;51.490;5.436;2023-06-10T04:34:49;101327.38;;;17.90;61.41
72055;BME280;59936;51.490;5.436;2023-06-10T04:37:17;101334.56;;;17.97;61.27
72055;BME280;59936;51.490;5.436;2023-06-10T04:39:46;101335.63;;;18.03;61.00
72055;BME280;59936;51.490;5.436;2023-06-10T04:42:15;101335.63;;;18.03;61.00
72055;BME280;59936;51.490;5.436;2023-06-10T04:44:43;101325.38;;;17.98;61.55
72055;BME280;59936;51.490;5.436;2023-06-10T04:47:12;101333.75;;;18.03;61.36
72055;BME280;59936;51.490;5.436;2023-06-10T04:49:40;101340.00;;;18.10;61.29
72055;BME280;59936;51.490;5.436;2023-06-10T04:52:09;101327.72;;;18.15;61.40
72055;BME280;59936;51.490;5.436;2023-06-10T04:54:37;101332.75;;;18.18;61.38
72055;BME280;59936;51.490;5.436;2023-06-10T04:57:06;101335.88;;;18.21;61.85
72055;BME280;59936;51.490;5.436;2023-06-10T04:59:35;101337.56;;;18.29;61.05
72055;BME280;59936;51.490;5.436;2023-06-10T05:02:04;101331.94;;;18.37;61.12
72055;BME280;59936;51.490;5.436;2023-06-10T05:04:33;101338.03;;;18.45;60.83
72055;BME280;59936;51.490;5.436;2023-06-10T05:07:01;101342.59;;;18.52;60.46
72055;BME280;59936;51.490;5.436;2023-06-10T05:09:30;101335.72;;;18.56;60.74
72055;BME280;59936;51.490;5.436;2023-06-10T05:11:58;101338.03;;;18.59;60.82
72055;BME280;59936;51.490;5.436;2023-06-10T05:14:27;101339.72;;;18.66;60.84
72055;BME280;59936;51.490;5.436;2023-06-10T05:16:56;101335.94;;;18.74;60.57
72055;BME280;59936;51.490;5.436;2023-06-10T05:19:24;101340.56;;;18.80;60.38
72055;BME280;59936;51.490;5.436;2023-06-10T05:21:53;101340.38;;;18.88;60.44
72055;BME280;59936;51.490;5.436;2023-06-10T05:24:21;101335.16;;;18.93;60.49
72055;BME280;59936;51.490;5.436;2023-06-10T05:26:50;101339.34;;;19.09;60.24
72055;BME280;59936;51.490;5.436;2023-06-10T05:29:23;101339.34;;;19.09;60.24
72055;BME280;59936;51.490;5.436;2023-06-10T05:31:52;101343.31;;;19.13;60.05
72055;BME280;59936;51.490;5.436;2023-06-10T05:34:20;101335.34;;;19.18;60.21
72055;BME280;59936;51.490;5.436;2023-06-10T05:36:49;101330.75;;;19.32;59.60
72055;BME280;59936;51.490;5.436;2023-06-10T05:39:18;101329.22;;;19.56;59.58
72055;BME280;59936;51.490;5.436;2023-06-10T05:41:46;101341.31;;;19.60;59.38
72055;BME280;59936;51.490;5.436;2023-06-10T05:44:15;101341.31;;;19.60;59.38
72055;BME280;59936;51.490;5.436;2023-06-10T05:46:43;101337.53;;;19.74;59.31
72055;BME280;59936;51.490;5.436;2023-06-10T05:49:12;101337.53;;;19.74;59.31
72055;BME280;59936;51.490;5.436;2023-06-10T05:51:40;101341.06;;;19.74;59.32
72055;BME280;59936;51.490;5.436;2023-06-10T05:54:09;101334.34;;;19.84;59.11
72055;BME280;59936;51.490;5.436;2023-06-10T05:56:37;101341.66;;;19.90;59.03
72055;BME280;59936;51.490;5.436;2023-06-10T05:59:06;101335.81;;;19.93;59.13
72055;BME280;59936;51.490;5.436;2023-06-10T06:01:35;101337.03;;;19.97;59.22
72055;BME280;59936;51.490;5.436;2023-06-10T06:04:03;101342.38;;;20.17;58.55
72055;BME280;59936;51.490;5.436;2023-06-10T06:06:32;101349.63;;;20.29;58.25
72055;BME280;59936;51.490;5.436;2023-06-10T06:09:00;101349.63;;;20.29;58.25
72055;BME280;59936;51.490;5.436;2023-06-10T06:11:29;101342.69;;;20.33;58.33
72055;BME280;59936;51.490;5.436;2023-06-10T06:13:58;101350.78;;;20.46;58.12
72055;BME280;59936;51.490;5.436;2023-06-10T06:16:26;101350.78;;;20.46;58.12
72055;BME280;59936;51.490;5.436;2023-06-10T06:18:55;101336.09;;;20.47;58.20
72055;BME280;59936;51.490;5.436;2023-06-10T06:21:23;101337.28;;;20.65;57.75
72055;BME280;59936;51.490;5.436;2023-06-10T06:23:52;101333.84;;;20.76;57.55
72055;BME280;59936;51.490;5.436;2023-06-10T06:26:20;101339.41;;;20.88;57.22
72055;BME280;59936;51.490;5.436;2023-06-10T06:28:49;101339.69;;;21.04;56.98
72055;BME280;59936;51.490;5.436;2023-06-10T06:31:18;101336.38;;;21.21;56.87
72055;BME280;59936;51.490;5.436;2023-06-10T06:33:46;101347.81;;;21.54;56.42
72055;BME280;59936;51.490;5.436;2023-06-10T06:36:15;101347.81;;;21.54;56.42
72055;BME280;59936;51.490;5.436;2023-06-10T06:38:43;101347.00;;;21.72;56.39
72055;BME280;59936;51.490;5.436;2023-06-10T06:41:12;101351.81;;;22.06;56.39
72055;BME280;59936;51.490;5.436;2023-06-10T06:43:40;101349.84;;;22.43;56.23
72055;BME280;59936;51.490;5.436;2023-06-10T06:46:09;101349.81;;;22.73;56.39
72055;BME280;59936;51.490;5.436;2023-06-10T06:48:38;101354.88;;;23.11;56.37
72055;BME280;59936;51.490;5.436;2023-06-10T06:51:09;101352.75;;;23.37;56.29
72055;BME280;59936;51.490;5.436;2023-06-10T06:53:41;101356.59;;;23.99;55.39
72055;BME280;59936;51.490;5.436;2023-06-10T06:56:11;101356.59;;;23.99;55.39
72055;BME280;59936;51.490;5.436;2023-06-10T06:58:41;101342.94;;;24.16;55.25
72055;BME280;59936;51.490;5.436;2023-06-10T07:01:09;101348.22;;;24.34;55.30
72055;BME280;59936;51.490;5.436;2023-06-10T07:03:38;101352.41;;;24.65;55.12
72055;BME280;59936;51.490;5.436;2023-06-10T07:06:06;101349.59;;;24.94;54.60
72055;BME280;59936;51.490;5.436;2023-06-10T07:08:40;101361.56;;;25.38;53.00
72055;BME280;59936;51.490;5.436;2023-06-10T07:11:09;101361.56;;;25.38;53.00
72055;BME280;59936;51.490;5.436;2023-06-10T07:13:37;101350.78;;;25.53;52.53
72055;BME280;59936;51.490;5.436;2023-06-10T07:16:06;101358.78;;;25.54;52.38
72055;BME280;59936;51.490;5.436;2023-06-10T07:18:35;101369.59;;;25.83;52.33
72055;BME280;59936;51.490;5.436;2023-06-10T07:21:03;101362.00;;;26.12;51.82
72055;BME280;59936;51.490;5.436;2023-06-10T07:23:32;101373.97;;;26.49;51.01
72055;BME280;59936;51.490;5.436;2023-06-10T07:26:00;101373.97;;;26.49;51.01
72055;BME280;59936;51.490;5.436;2023-06-10T07:28:29;101367.69;;;26.81;50.67
72055;BME280;59936;51.490;5.436;2023-06-10T07:30:57;101363.94;;;26.92;49.84
72055;BME280;59936;51.490;5.436;2023-06-10T07:33:26;101360.66;;;26.95;49.51
72055;BME280;59936;51.490;5.436;2023-06-10T07:35:55;101369.97;;;26.94;49.34
72055;BME280;59936;51.490;5.436;2023-06-10T07:38:27;101369.19;;;26.99;49.50
72055;BME280;59936;51.490;5.436;2023-06-10T07:40:55;101381.00;;;27.68;48.26
72055;BME280;59936;51.490;5.436;2023-06-10T07:43:24;101381.00;;;27.68;48.26
72055;BME280;59936;51.490;5.436;2023-06-10T07:45:52;101378.00;;;27.75;48.02
72055;BME280;59936;51.490;5.436;2023-06-10T07:48:21;101361.56;;;27.90;47.95
72055;BME280;59936;51.490;5.436;2023-06-10T07:50:51;101366.38;;;28.20;47.07
72055;BME280;59936;51.490;5.436;2023-06-10T07:53:20;101363.09;;;28.38;46.83
72055;BME280;59936;51.490;5.436;2023-06-10T07:55:49;101371.19;;;28.65;46.31
72055;BME280;59936;51.490;5.436;2023-06-10T07:58:17;101364.28;;;29.13;45.19
72055;BME280;59936;51.490;5.436;2023-06-10T08:00:49;101364.28;;;29.13;45.05
72055;BME280;59936;51.490;5.436;2023-06-10T08:03:18;101372.00;;;29.32;44.10
72055;BME280;59936;51.490;5.436;2023-06-10T08:05:47;101365.03;;;29.64;43.77
72055;BME280;59936;51.490;5.436;2023-06-10T08:08:15;101366.88;;;29.94;42.47
72055;BME280;59936;51.490;5.436;2023-06-10T08:10:44;101366.88;;;29.94;42.47
72055;BME280;59936;51.490;5.436;2023-06-10T08:13:12;101362.19;;;30.49;41.10
72055;BME280;59936;51.490;5.436;2023-06-10T08:15:41;101362.25;;;30.39;41.26
72055;BME280;59936;51.490;5.436;2023-06-10T08:18:09;101356.47;;;30.75;40.32
72055;BME280;59936;51.490;5.436;2023-06-10T08:20:38;101355.94;;;30.68;39.64
72055;BME280;59936;51.490;5.436;2023-06-10T08:23:07;101356.28;;;31.00;39.75
72055;BME280;59936;51.490;5.436;2023-06-10T08:25:35;101358.56;;;31.22;39.46
72055;BME280;59936;51.490;5.436;2023-06-10T08:28:04;101358.56;;;31.98;38.37
72055;BME280;59936;51.490;5.436;2023-06-10T08:30:32;101345.09;;;32.67;37.17
72055;BME280;59936;51.490;5.436;2023-06-10T08:33:01;101351.28;;;32.96;36.34
72055;BME280;59936;51.490;5.436;2023-06-10T08:35:29;101364.91;;;32.60;37.49
72055;BME280;59936;51.490;5.436;2023-06-10T08:37:58;101364.91;;;32.60;37.49
72055;BME280;59936;51.490;5.436;2023-06-10T08:40:27;101365.63;;;31.62;37.78
72055;BME280;59936;51.490;5.436;2023-06-10T08:43:08;101365.63;;;31.62;37.78
72055;BME280;59936;51.490;5.436;2023-06-10T08:45:59;101362.09;;;32.04;36.94
72055;BME280;59936;51.490;5.436;2023-06-10T08:48:29;101366.75;;;32.09;36.88
72055;BME280;59936;51.490;5.436;2023-06-10T08:50:58;101367.34;;;31.58;36.60
72055;BME280;59936;51.490;5.436;2023-06-10T08:53:29;101359.97;;;31.48;38.18
72055;BME280;59936;51.490;5.436;2023-06-10T08:56:04;101358.03;;;31.96;36.91
72055;BME280;59936;51.490;5.436;2023-06-10T08:58:33;101363.28;;;32.17;37.28
72055;BME280;59936;51.490;5.436;2023-06-10T09:01:03;101352.56;;;32.53;36.90
72055;BME280;59936;51.490;5.436;2023-06-10T09:03:31;101353.81;;;32.93;36.03
72055;BME280;59936;51.490;5.436;2023-06-10T09:06:03;101350.19;;;33.11;35.68
72055;BME280;59936;51.490;5.436;2023-06-10T09:08:33;101353.72;;;33.30;35.28
72055;BME280;59936;51.490;5.436;2023-06-10T09:11:02;101355.16;;;33.28;34.84
72055;BME280;59936;51.490;5.436;2023-06-10T09:13:31;101352.69;;;32.94;35.25
72055;BME280;59936;51.490;5.436;2023-06-10T09:15:59;101361.88;;;32.38;35.05
72055;BME280;59936;51.490;5.436;2023-06-10T09:18:28;101361.88;;;32.38;35.05
72055;BME280;59936;51.490;5.436;2023-06-10T09:20:58;101349.06;;;32.42;35.35
72055;BME280;59936;51.490;5.436;2023-06-10T09:23:26;101341.88;;;32.60;35.06
72055;BME280;59936;51.490;5.436;2023-06-10T09:25:56;101350.59;;;32.86;34.63
72055;BME280;59936;51.490;5.436;2023-06-10T09:28:26;101352.78;;;32.89;34.60
72055;BME280;59936;51.490;5.436;2023-06-10T09:31:04;101348.06;;;32.89;34.42
72055;BME280;59936;51.490;5.436;2023-06-10T09:33:37;101354.34;;;32.95;35.03
72055;BME280;59936;51.490;5.436;2023-06-10T09:36:07;101349.88;;;33.59;33.18
72055;BME280;59936;51.490;5.436;2023-06-10T09:38:35;101349.88;;;33.59;33.18
72055;BME280;59936;51.490;5.436;2023-06-10T09:41:04;101355.38;;;33.31;34.27
72055;BME280;59936;51.490;5.436;2023-06-10T09:43:59;101354.75;;;33.21;33.83
72055;BME280;59936;51.490;5.436;2023-06-10T09:46:31;101340.22;;;33.10;33.62
72055;BME280;59936;51.490;5.436;2023-06-10T09:49:05;101342.91;;;33.15;34.33
72055;BME280;59936;51.490;5.436;2023-06-10T09:51:34;101342.31;;;33.32;33.66
72055;BME280;59936;51.490;5.436;2023-06-10T09:54:03;101338.63;;;33.37;34.38
72055;BME280;59936;51.490;5.436;2023-06-10T09:56:33;101344.16;;;33.50;33.75
72055;BME280;59936;51.490;5.436;2023-06-10T09:59:05;101343.78;;;33.71;33.56
72055;BME280;59936;51.490;5.436;2023-06-10T10:01:34;101341.94;;;33.80;33.39
72055;BME280;59936;51.490;5.436;2023-06-10T10:04:03;101340.09;;;33.75;33.11
72055;BME280;59936;51.490;5.436;2023-06-10T10:06:32;101338.75;;;33.59;32.54
72055;BME280;59936;51.490;5.436;2023-06-10T10:09:02;101341.41;;;33.50;32.87
72055;BME280;59936;51.490;5.436;2023-06-10T10:11:31;101333.09;;;33.64;32.44
72055;BME280;59936;51.490;5.436;2023-06-10T10:14:03;101333.69;;;33.75;32.75
72055;BME280;59936;51.490;5.436;2023-06-10T10:16:36;101325.53;;;34.06;32.45
72055;BME280;59936;51.490;5.436;2023-06-10T10:19:30;101324.19;;;33.89;32.32
72055;BME280;59936;51.490;5.436;2023-06-10T10:22:15;101320.47;;;34.21;31.85
72055;BME280;59936;51.490;5.436;2023-06-10T10:24:53;101319.97;;;34.42;32.10
72055;BME280;59936;51.490;5.436;2023-06-10T10:27:41;101325.09;;;34.26;31.57
72055;BME280;59936;51.490;5.436;2023-06-10T10:30:14;101325.09;;;34.26;31.57
72055;BME280;59936;51.490;5.436;2023-06-10T10:32:53;101319.66;;;34.21;32.27
72055;BME280;59936;51.490;5.436;2023-06-10T10:35:25;101318.63;;;34.17;29.00
72055;BME280;59936;51.490;5.436;2023-06-10T10:37:54;101322.53;;;34.16;31.74
72055;BME280;59936;51.490;5.436;2023-06-10T10:40:24;101326.75;;;34.13;31.96
72055;BME280;59936;51.490;5.436;2023-06-10T10:42:56;101326.75;;;34.13;31.96
72055;BME280;59936;51.490;5.436;2023-06-10T10:45:28;101315.94;;;34.25;31.25
72055;BME280;59936;51.490;5.436;2023-06-10T10:47:57;101314.84;;;34.57;31.27
72055;BME280;59936;51.490;5.436;2023-06-10T10:50:28;101316.44;;;34.27;31.09
72055;BME280;59936;51.490;5.436;2023-06-10T10:53:02;101308.66;;;34.38;30.89
72055;BME280;59936;51.490;5.436;2023-06-10T10:55:32;101307.09;;;34.10;30.91
72055;BME280;59936;51.490;5.436;2023-06-10T10:58:06;101314.53;;;33.87;31.13
72055;BME280;59936;51.490;5.436;2023-06-10T11:00:37;101312.75;;;34.05;31.52
72055;BME280;59936;51.490;5.436;2023-06-10T11:03:15;101307.59;;;34.48;31.02
72055;BME280;59936;51.490;5.436;2023-06-10T11:05:45;101310.06;;;34.49;30.39
72055;BME280;59936;51.490;5.436;2023-06-10T11:10:57;101307.41;;;33.94;30.44
72055;BME280;59936;51.490;5.436;2023-06-10T11:13:27;101307.41;;;33.94;30.44
72055;BME280;59936;51.490;5.436;2023-06-10T11:15:58;101293.84;;;33.52;30.33
72055;BME280;59936;51.490;5.436;2023-06-10T11:18:38;101304.97;;;33.52;30.59
72055;BME280;59936;51.490;5.436;2023-06-10T11:21:07;101305.19;;;33.69;30.55
72055;BME280;59936;51.490;5.436;2023-06-10T11:23:40;101297.38;;;33.57;30.19
72055;BME280;59936;51.490;5.436;2023-06-10T11:26:17;101293.84;;;33.52;30.88
72055;BME280;59936;51.490;5.436;2023-06-10T11:31:19;101289.25;;;33.20;30.30
72055;BME280;59936;51.490;5.436;2023-06-10T11:33:57;101294.75;;;33.06;30.43
72055;BME280;59936;51.490;5.436;2023-06-10T11:36:31;101289.03;;;33.16;30.54
72055;BME280;59936;51.490;5.436;2023-06-10T11:39:03;101278.31;;;33.23;29.86
72055;BME280;59936;51.490;5.436;2023-06-10T11:41:34;101279.75;;;33.48;30.42
72055;BME280;59936;51.490;5.436;2023-06-10T11:44:07;101280.69;;;33.71;30.27
72055;BME280;59936;51.490;5.436;2023-06-10T11:46:40;101284.09;;;33.82;30.00
72055;BME280;59936;51.490;5.436;2023-06-10T11:49:11;101287.28;;;33.75;29.59
72055;BME280;59936;51.490;5.436;2023-06-10T11:51:40;101280.19;;;33.69;29.62
72055;BME280;59936;51.490;5.436;2023-06-10T11:54:09;101280.41;;;33.59;29.97
72055;BME280;59936;51.490;5.436;2023-06-10T11:56:38;101266.59;;;33.54;29.70
72055;BME280;59936;51.490;5.436;2023-06-10T11:59:07;101268.44;;;33.45;29.98
72055;BME280;59936;51.490;5.436;2023-06-10T12:01:37;101274.81;;;33.45;29.78
72055;BME280;59936;51.490;5.436;2023-06-10T12:04:11;101271.72;;;33.47;29.91
72055;BME280;59936;51.490;5.436;2023-06-10T12:09:28;101271.31;;;33.12;29.26
72055;BME280;59936;51.490;5.436;2023-06-10T12:12:02;101263.44;;;32.87;29.41
72055;BME280;59936;51.490;5.436;2023-06-10T12:17:21;101247.75;;;32.96;26.43
72055;BME280;59936;51.490;5.436;2023-06-10T12:19:51;101254.72;;;32.93;29.68
72055;BME280;59936;51.490;5.436;2023-06-10T12:22:20;101260.91;;;33.04;29.58
72055;BME280;59936;51.490;5.436;2023-06-10T12:24:58;101249.50;;;33.06;29.37
72055;BME280;59936;51.490;5.436;2023-06-10T12:27:30;101249.72;;;33.09;28.75
72055;BME280;59936;51.490;5.436;2023-06-10T12:30:00;101248.88;;;32.95;28.94
72055;BME280;59936;51.490;5.436;2023-06-10T12:32:44;101245.13;;;33.18;29.58
72055;BME280;59936;51.490;5.436;2023-06-10T12:35:17;101253.13;;;33.33;29.37
72055;BME280;59936;51.490;5.436;2023-06-10T12:38:03;101259.53;;;32.88;26.67
72055;BME280;59936;51.490;5.436;2023-06-10T12:40:39;101251.16;;;32.60;28.01
72055;BME280;59936;51.490;5.436;2023-06-10T12:43:07;101257.16;;;32.49;28.28
72055;BME280;59936;51.490;5.436;2023-06-10T12:45:38;101248.00;;;32.67;28.01
72055;BME280;59936;51.490;5.436;2023-06-10T12:48:21;101251.50;;;32.86;28.50
72055;BME280;59936;51.490;5.436;2023-06-10T12:50:55;101242.59;;;32.89;28.15
72055;BME280;59936;51.490;5.436;2023-06-10T12:53:25;101254.00;;;33.01;28.09
72055;BME280;59936;51.490;5.436;2023-06-10T12:55:54;101249.25;;;32.88;28.10
72055;BME280;59936;51.490;5.436;2023-06-10T12:58:24;101247.03;;;33.04;28.20
72055;BME280;59936;51.490;5.436;2023-06-10T13:00:52;101244.66;;;32.97;27.90
72055;BME280;59936;51.490;5.436;2023-06-10T13:03:21;101244.66;;;32.97;27.90
72055;BME280;59936;51.490;5.436;2023-06-10T13:05:50;101240.56;;;33.09;27.77
72055;BME280;59936;51.490;5.436;2023-06-10T13:08:18;101238.91;;;33.21;28.04
72055;BME280;59936;51.490;5.436;2023-06-10T13:10:47;101242.44;;;33.13;28.19
72055;BME280;59936;51.490;5.436;2023-06-10T13:13:15;101233.81;;;32.82;28.15
72055;BME280;59936;51.490;5.436;2023-06-10T13:15:44;101241.66;;;32.94;27.87
72055;BME280;59936;51.490;5.436;2023-06-10T13:18:12;101234.63;;;33.15;28.18
72055;BME280;59936;51.490;5.436;2023-06-10T13:20:44;101236.94;;;33.49;27.82
72055;BME280;59936;51.490;5.436;2023-06-10T13:23:13;101234.38;;;33.53;27.52
72055;BME280;59936;51.490;5.436;2023-06-10T13:25:41;101232.44;;;33.26;27.09
72055;BME280;59936;51.490;5.436;2023-06-10T13:28:10;101229.88;;;33.29;27.35